• Join FlightAware (Why Join?)
  • Login
  • US Flag 
04:16AM EST


 

Airport Tracker/Info


-or-


 

Live Flight TrackerFlight Track Log ✈ N4555K ✈ 17-Jul-2014 ✈ KAPF - KEYW

Flight Track Log - Related Links

Times and Time Zones

All times are in EDT time to prevent confusion due to time zone crossing. See the N4555K flight status page for this flight to view local times or setup timezone preferences in your user account.

Time Position Orientation Groundspeed Altitude Reporting Facility
EDT Latitude Longitude Course Direction KTS MPH feet Rate Location/Type
01:57PM 26.0742 -81.8014 160° South 129 148 2,100  Level Miami Center
01:58PM 26.0344 -81.7950 172° South 131 151 2,600 480 Climbing Miami Center
01:59PM 25.9983 -81.7878 170° South 131 151 3,100 480 Climbing Miami Center
02:00PM 25.9586 -81.7819 172° South 131 151 3,600 480 Climbing Miami Center
02:01PM 25.9497 -81.6265 160° South  Level FlightAware Approximate
02:01PM 25.9189 -81.7781 175° South 132 152 4,100  Level Miami Center
02:02PM 25.9120 -81.6115 160° South  Level FlightAware Approximate
02:02PM 25.8811 -81.7769 178° South 134 154 4,600  Level Miami Center
02:03PM 25.8414 -81.7744 177° South 134 154 5,100 480 Climbing Miami Center
02:04PM 25.8050 -81.7725 177° South 134 154 5,600 420 Climbing Miami Center
02:05PM 25.7661 -81.7703 177° South 133 153 6,000 420 Climbing Miami Center
02:06PM 25.7294 -81.7683 177° South 132 152 6,500 480 Climbing Miami Center
02:07PM 25.6903 -81.7667 178° South 132 152 7,000 240 Climbing Miami Center
02:08PM 25.6539 -81.7656 178° South 133 153 7,000  Level Miami Center
02:09PM 25.6081 -81.7681 183° South 156 180 7,000  Level Miami Center
02:10PM 25.5533 -81.7689 181° South 161 185 7,000  Level Miami Center
02:11PM 25.5083 -81.7708 182° South 161 185 7,000  Level Miami Center
02:12PM 25.4642 -81.7725 182° South 161 185 7,000  Level Miami Center
02:13PM 25.4203 -81.7736 181° South 160 184 7,000 -180 Level Miami Center
02:14PM 25.3719 -81.7750 181° South 159 183 6,700 -420 Descending Miami Center
02:15PM 25.3253 -81.7758 181° South 160 184 6,200 -600 Descending Miami Center
02:16PM 25.2694 -81.7725 177° South 170 196 5,500 -720 Descending Miami Center
02:17PM 25.2189 -81.7700 177° South 178 205 4,800 -720 Descending Miami Center
02:19PM 25.1689 -81.7683 178° South 178 205 4,000 -420 Descending Miami Center
02:20PM 25.1194 -81.7669 179° South 178 205 4,000  Level Miami Center
02:21PM 25.0686 -81.7653 178° South 174 200 4,000  Level Miami Center
02:22PM 25.0189 -81.7650 180° South 166 191 4,000 -120 Level Miami Center
02:23PM 24.9714 -81.7631 178° South 166 191 3,800 -360 Descending Miami Center
02:24PM 24.9247 -81.7636 181° South 166 191 3,300 -420 Descending Miami Center
02:25PM 24.8808 -81.7631 179° South 165 190 3,000 -480 Descending Miami Center
02:26PM 24.8325 -81.7633 180° South 165 190 2,300 -660 Descending Miami Center
02:27PM 24.7756 -81.7614 178° South 167 192 1,700 -360 Descending Miami Center
02:28PM 24.7311 -81.7469 164° South 168 193 1,600 -60 Descending Miami Center
02:29PM 24.6881 -81.7350 166° South 165 190 1,600  Level Miami Center
02:30PM 24.6442 -81.7256 169° South 163 188 1,600 -120 Level Miami Center
02:31PM 24.6019 -81.7278 183° South 160 184 1,400 -540 Descending Miami Center
02:32PM 24.5586 -81.7267 179° South 147 169 600 -660 Descending Miami Center
02:33PM 24.5556 -81.7572 264° West 113 130 100 -540 Descending Miami Center
02:35PM 24.5500 -81.7500 180° South  Level FlightAware Approximate